Rosie, Arkansas
Current Conditions -  °F | °C
As of 6:55 PM on Tuesday 21 Oct 2014 (Local Time) from KBVX Reporting Station
Clear Clear  
Wind Chill: 64°   Ceiling: Unl
Heat Index: 64°   Visibility: 10mi
Dew Point: 48°   Wind: 0mph
Humidity: 56%   Direction: NA
Pressure: 30.07"   Gusts: NA
Location:  35.67°N, 91.54°W
Report Text: KBVX 212355Z AUTO 00000KT 10SM CLR 18/09 A3007 RMK AO1 10260 20180 402600130 52003
Loading
Personal Weather Stations






























Interactive Weather Map
Tropical Storm Tracking
New forecast layout! Learn more

10-Day Weather Forecast

Advertisements
Track Severe Weather on mobile